sensor_id;sensor_type;location;lat;lon;timestamp;pressure;altitude;pressure_sealevel;temperature;humidity
16834;BME280;8533;48.426;10.868;2023-07-31T00:00:29;96251.28;;;13.89;100.00
16834;BME280;8533;48.426;10.868;2023-07-31T00:02:54;96308.63;;;14.23;100.00
16834;BME280;8533;48.426;10.868;2023-07-31T00:05:20;96300.75;;;14.18;100.00
16834;BME280;8533;48.426;10.868;2023-07-31T00:07:46;96225.50;;;13.61;100.00
16834;BME280;8533;48.426;10.868;2023-07-31T00:10:11;96124.19;;;12.77;100.00
16834;BME280;8533;48.426;10.868;2023-07-31T00:12:38;96254.94;;;13.73;100.00
16834;BME280;8533;48.426;10.868;2023-07-31T00:15:05;96157.84;;;12.95;100.00
16834;BME280;8533;48.426;10.868;2023-07-31T00:17:30;96222.59;;;13.37;100.00
16834;BME280;8533;48.426;10.868;2023-07-31T00:19:56;96123.97;;;12.89;100.00
16834;BME280;8533;48.426;10.868;2023-07-31T00:22:21;96247.06;;;13.68;100.00
16834;BME280;8533;48.426;10.868;2023-07-31T00:24:46;96218.66;;;13.45;100.00
16834;BME280;8533;48.426;10.868;2023-07-31T00:27:12;96183.69;;;13.29;100.00
16834;BME280;8533;48.426;10.868;2023-07-31T00:29:37;96168.66;;;13.14;100.00
16834;BME280;8533;48.426;10.868;2023-07-31T00:32:03;96143.94;;;13.00;100.00
16834;BME280;8533;48.426;10.868;2023-07-31T00:34:28;96198.91;;;13.32;100.00
16834;BME280;8533;48.426;10.868;2023-07-31T00:36:53;96169.19;;;13.16;100.00
16834;BME280;8533;48.426;10.868;2023-07-31T00:39:18;96145.72;;;12.84;100.00
16834;BME280;8533;48.426;10.868;2023-07-31T00:41:44;96169.75;;;13.13;100.00
16834;BME280;8533;48.426;10.868;2023-07-31T00:44:09;96232.31;;;13.52;100.00
16834;BME280;8533;48.426;10.868;2023-07-31T00:46:35;96133.91;;;12.77;100.00
16834;BME280;8533;48.426;10.868;2023-07-31T00:49:00;96164.94;;;13.00;100.00
16834;BME280;8533;48.426;10.868;2023-07-31T00:51:25;96198.13;;;13.21;100.00
16834;BME280;8533;48.426;10.868;2023-07-31T00:53:51;96210.19;;;13.22;100.00
16834;BME280;8533;48.426;10.868;2023-07-31T00:56:19;96177.34;;;13.15;100.00
16834;BME280;8533;48.426;10.868;2023-07-31T00:58:44;96295.97;;;13.84;100.00
16834;BME280;8533;48.426;10.868;2023-07-31T01:01:09;96179.19;;;13.19;100.00
16834;BME280;8533;48.426;10.868;2023-07-31T01:03:35;96287.03;;;13.90;100.00
16834;BME280;8533;48.426;10.868;2023-07-31T01:06:17;96163.94;;;13.16;100.00
16834;BME280;8533;48.426;10.868;2023-07-31T01:08:55;96311.00;;;13.94;100.00
16834;BME280;8533;48.426;10.868;2023-07-31T01:11:27;95963.34;;;11.79;100.00
16834;BME280;8533;48.426;10.868;2023-07-31T01:13:54;96275.22;;;13.93;100.00
16834;BME280;8533;48.426;10.868;2023-07-31T01:16:20;96150.53;;;13.13;100.00
16834;BME280;8533;48.426;10.868;2023-07-31T01:18:45;96273.34;;;13.88;100.00
16834;BME280;8533;48.426;10.868;2023-07-31T01:24:17;96263.88;;;13.87;100.00
16834;BME280;8533;48.426;10.868;2023-07-31T01:26:47;96125.22;;;12.81;100.00
16834;BME280;8533;48.426;10.868;2023-07-31T01:29:34;96157.09;;;13.10;100.00
16834;BME280;8533;48.426;10.868;2023-07-31T01:32:03;96138.94;;;13.09;100.00
16834;BME280;8533;48.426;10.868;2023-07-31T01:34:30;96207.63;;;13.53;100.00
16834;BME280;8533;48.426;10.868;2023-07-31T01:36:56;96051.94;;;12.49;100.00
16834;BME280;8533;48.426;10.868;2023-07-31T01:39:23;96150.28;;;13.14;100.00
16834;BME280;8533;48.426;10.868;2023-07-31T01:41:49;96080.88;;;12.65;100.00
16834;BME280;8533;48.426;10.868;2023-07-31T01:44:14;96269.16;;;13.87;100.00
16834;BME280;8533;48.426;10.868;2023-07-31T01:46:39;96169.47;;;13.30;100.00
16834;BME280;8533;48.426;10.868;2023-07-31T01:49:05;96256.78;;;13.88;100.00
16834;BME280;8533;48.426;10.868;2023-07-31T01:51:31;96224.94;;;13.49;100.00
16834;BME280;8533;48.426;10.868;2023-07-31T01:54:00;96138.22;;;13.13;100.00
16834;BME280;8533;48.426;10.868;2023-07-31T01:56:25;96142.09;;;13.00;100.00
16834;BME280;8533;48.426;10.868;2023-07-31T01:58:50;96174.22;;;13.33;100.00
16834;BME280;8533;48.426;10.868;2023-07-31T02:01:15;96153.97;;;13.18;100.00
16834;BME280;8533;48.426;10.868;2023-07-31T02:03:41;96090.59;;;12.79;100.00
16834;BME280;8533;48.426;10.868;2023-07-31T02:06:07;95966.31;;;12.03;100.00
16834;BME280;8533;48.426;10.868;2023-07-31T02:08:32;96186.84;;;13.41;100.00
16834;BME280;8533;48.426;10.868;2023-07-31T02:10:58;96135.53;;;13.03;100.00
16834;BME280;8533;48.426;10.868;2023-07-31T02:13:23;96239.72;;;13.75;100.00
16834;BME280;8533;48.426;10.868;2023-07-31T02:15:48;96114.78;;;13.07;100.00
16834;BME280;8533;48.426;10.868;2023-07-31T02:18:13;96267.56;;;13.76;100.00
16834;BME280;8533;48.426;10.868;2023-07-31T02:20:39;96174.25;;;13.43;100.00
16834;BME280;8533;48.426;10.868;2023-07-31T02:23:04;96228.16;;;13.76;100.00
16834;BME280;8533;48.426;10.868;2023-07-31T02:25:30;96225.78;;;13.74;100.00
16834;BME280;8533;48.426;10.868;2023-07-31T02:27:55;96107.97;;;13.00;100.00
16834;BME280;8533;48.426;10.868;2023-07-31T02:30:20;96211.06;;;13.68;100.00
16834;BME280;8533;48.426;10.868;2023-07-31T02:32:46;96132.97;;;13.13;100.00
16834;BME280;8533;48.426;10.868;2023-07-31T02:35:11;96120.28;;;12.95;100.00
16834;BME280;8533;48.426;10.868;2023-07-31T02:37:40;96214.97;;;13.35;100.00
16834;BME280;8533;48.426;10.868;2023-07-31T02:40:06;96205.22;;;13.36;100.00
16834;BME280;8533;48.426;10.868;2023-07-31T02:42:31;96062.97;;;12.51;100.00
16834;BME280;8533;48.426;10.868;2023-07-31T02:44:57;96139.22;;;12.97;100.00
16834;BME280;8533;48.426;10.868;2023-07-31T02:47:22;96061.94;;;12.57;100.00
16834;BME280;8533;48.426;10.868;2023-07-31T02:49:48;96150.31;;;13.19;100.00
16834;BME280;8533;48.426;10.868;2023-07-31T02:52:13;96146.09;;;13.18;100.00
16834;BME280;8533;48.426;10.868;2023-07-31T02:54:38;96204.72;;;13.54;100.00
16834;BME280;8533;48.426;10.868;2023-07-31T02:57:04;95985.75;;;12.07;100.00
16834;BME280;8533;48.426;10.868;2023-07-31T02:59:30;96202.88;;;13.50;100.00
16834;BME280;8533;48.426;10.868;2023-07-31T03:01:55;96116.34;;;12.92;100.00
16834;BME280;8533;48.426;10.868;2023-07-31T03:04:20;96115.53;;;12.82;100.00
16834;BME280;8533;48.426;10.868;2023-07-31T03:06:46;96196.03;;;13.33;100.00
16834;BME280;8533;48.426;10.868;2023-07-31T03:09:11;96093.44;;;12.68;100.00
16834;BME280;8533;48.426;10.868;2023-07-31T03:11:36;96024.53;;;12.10;100.00
16834;BME280;8533;48.426;10.868;2023-07-31T03:14:01;96138.66;;;12.85;100.00
16834;BME280;8533;48.426;10.868;2023-07-31T03:16:27;96107.66;;;12.72;100.00
16834;BME280;8533;48.426;10.868;2023-07-31T03:18:53;96041.41;;;12.34;100.00
16834;BME280;8533;48.426;10.868;2023-07-31T03:21:18;96009.34;;;12.12;100.00
16834;BME280;8533;48.426;10.868;2023-07-31T03:23:44;96103.44;;;12.76;100.00
16834;BME280;8533;48.426;10.868;2023-07-31T03:26:09;96001.19;;;12.08;100.00
16834;BME280;8533;48.426;10.868;2023-07-31T03:28:34;96055.03;;;12.26;100.00
16834;BME280;8533;48.426;10.868;2023-07-31T03:31:00;96193.38;;;13.18;100.00
16834;BME280;8533;48.426;10.868;2023-07-31T03:33:25;96085.03;;;12.66;100.00
16834;BME280;8533;48.426;10.868;2023-07-31T03:35:51;96130.53;;;12.96;100.00
16834;BME280;8533;48.426;10.868;2023-07-31T03:38:16;96092.09;;;12.50;100.00
16834;BME280;8533;48.426;10.868;2023-07-31T03:40:42;96056.69;;;12.47;100.00
16834;BME280;8533;48.426;10.868;2023-07-31T03:43:07;96032.25;;;12.32;100.00
16834;BME280;8533;48.426;10.868;2023-07-31T03:45:32;96098.97;;;12.76;100.00
16834;BME280;8533;48.426;10.868;2023-07-31T03:47:58;96097.94;;;12.82;100.00
16834;BME280;8533;48.426;10.868;2023-07-31T03:50:23;96139.22;;;13.07;100.00
16834;BME280;8533;48.426;10.868;2023-07-31T03:52:50;96206.31;;;13.45;100.00
16834;BME280;8533;48.426;10.868;2023-07-31T03:55:15;96099.78;;;12.82;100.00
16834;BME280;8533;48.426;10.868;2023-07-31T03:57:41;96102.94;;;12.84;100.00
16834;BME280;8533;48.426;10.868;2023-07-31T04:00:06;96197.34;;;13.46;100.00
16834;BME280;8533;48.426;10.868;2023-07-31T04:02:32;96158.63;;;13.06;100.00
16834;BME280;8533;48.426;10.868;2023-07-31T04:04:58;96197.63;;;13.50;100.00
16834;BME280;8533;48.426;10.868;2023-07-31T04:07:23;96138.69;;;13.10;100.00
16834;BME280;8533;48.426;10.868;2023-07-31T04:09:48;95982.63;;;12.20;100.00
16834;BME280;8533;48.426;10.868;2023-07-31T04:12:14;96193.69;;;13.62;100.00
16834;BME280;8533;48.426;10.868;2023-07-31T04:14:39;96150.31;;;13.34;100.00
16834;BME280;8533;48.426;10.868;2023-07-31T04:17:05;96107.50;;;13.19;100.00
16834;BME280;8533;48.426;10.868;2023-07-31T04:19:30;96140.34;;;13.36;100.00
16834;BME280;8533;48.426;10.868;2023-07-31T04:21:55;96163.72;;;13.58;100.00
16834;BME280;8533;48.426;10.868;2023-07-31T04:24:21;96014.72;;;12.63;100.00
16834;BME280;8533;48.426;10.868;2023-07-31T04:26:53;96128.75;;;13.48;100.00
16834;BME280;8533;48.426;10.868;2023-07-31T04:29:19;96125.63;;;13.46;100.00
16834;BME280;8533;48.426;10.868;2023-07-31T04:31:44;96109.84;;;13.41;100.00
16834;BME280;8533;48.426;10.868;2023-07-31T04:34:09;96149.25;;;13.56;100.00
16834;BME280;8533;48.426;10.868;2023-07-31T04:36:35;96063.63;;;13.19;100.00
16834;BME280;8533;48.426;10.868;2023-07-31T04:39:01;96158.19;;;13.90;100.00
16834;BME280;8533;48.426;10.868;2023-07-31T04:41:26;96104.59;;;13.66;100.00
16834;BME280;8533;48.426;10.868;2023-07-31T04:43:52;96044.72;;;13.38;100.00
16834;BME280;8533;48.426;10.868;2023-07-31T04:46:17;96132.91;;;14.04;100.00
16834;BME280;8533;48.426;10.868;2023-07-31T04:48:43;96010.81;;;13.36;100.00
16834;BME280;8533;48.426;10.868;2023-07-31T04:51:08;96152.31;;;14.34;100.00
16834;BME280;8533;48.426;10.868;2023-07-31T04:53:35;96177.28;;;14.57;100.00
16834;BME280;8533;48.426;10.868;2023-07-31T04:56:00;96085.63;;;13.94;100.00
16834;BME280;8533;48.426;10.868;2023-07-31T04:58:25;96114.22;;;14.16;100.00
16834;BME280;8533;48.426;10.868;2023-07-31T05:00:51;96097.19;;;13.88;100.00
16834;BME280;8533;48.426;10.868;2023-07-31T05:03:16;96094.50;;;14.03;100.00
16834;BME280;8533;48.426;10.868;2023-07-31T05:05:41;96015.75;;;13.58;100.00
16834;BME280;8533;48.426;10.868;2023-07-31T05:08:07;96157.28;;;14.56;100.00
16834;BME280;8533;48.426;10.868;2023-07-31T05:10:32;96027.28;;;13.77;100.00
16834;BME280;8533;48.426;10.868;2023-07-31T05:12:57;95950.66;;;13.24;100.00
16834;BME280;8533;48.426;10.868;2023-07-31T05:15:23;96023.06;;;13.81;100.00
16834;BME280;8533;48.426;10.868;2023-07-31T05:17:48;96017.28;;;13.84;100.00
16834;BME280;8533;48.426;10.868;2023-07-31T05:20:13;96038.78;;;13.96;100.00
16834;BME280;8533;48.426;10.868;2023-07-31T05:22:40;96069.72;;;14.25;100.00
16834;BME280;8533;48.426;10.868;2023-07-31T05:25:05;96145.88;;;14.75;100.00
16834;BME280;8533;48.426;10.868;2023-07-31T05:27:31;96162.94;;;14.88;100.00
16834;BME280;8533;48.426;10.868;2023-07-31T05:29:57;96067.06;;;14.35;100.00
16834;BME280;8533;48.426;10.868;2023-07-31T05:32:22;96089.13;;;14.44;100.00
16834;BME280;8533;48.426;10.868;2023-07-31T05:34:52;95947.97;;;13.60;100.00
16834;BME280;8533;48.426;10.868;2023-07-31T05:37:18;96157.31;;;15.05;100.00
16834;BME280;8533;48.426;10.868;2023-07-31T05:39:43;96156.78;;;15.08;100.00
16834;BME280;8533;48.426;10.868;2023-07-31T05:42:08;95758.66;;;12.56;100.00
16834;BME280;8533;48.426;10.868;2023-07-31T05:44:34;96147.19;;;15.22;100.00
16834;BME280;8533;48.426;10.868;2023-07-31T05:46:59;96083.44;;;14.81;100.00
16834;BME280;8533;48.426;10.868;2023-07-31T05:49:24;96073.91;;;14.85;100.00
16834;BME280;8533;48.426;10.868;2023-07-31T05:51:50;96167.13;;;15.38;100.00
16834;BME280;8533;48.426;10.868;2023-07-31T05:54:15;96015.97;;;14.51;100.00
16834;BME280;8533;48.426;10.868;2023-07-31T05:56:40;95950.75;;;14.33;100.00
16834;BME280;8533;48.426;10.868;2023-07-31T05:59:05;96028.13;;;14.81;100.00
16834;BME280;8533;48.426;10.868;2023-07-31T06:01:31;96001.63;;;14.67;100.00
16834;BME280;8533;48.426;10.868;2023-07-31T06:03:56;96187.53;;;15.95;100.00
16834;BME280;8533;48.426;10.868;2023-07-31T06:06:21;96101.75;;;15.35;100.00
16834;BME280;8533;48.426;10.868;2023-07-31T06:08:47;95971.59;;;14.68;100.00
16834;BME280;8533;48.426;10.868;2023-07-31T06:11:12;96023.47;;;15.07;100.00
16834;BME280;8533;48.426;10.868;2023-07-31T06:13:37;96139.88;;;15.82;100.00
16834;BME280;8533;48.426;10.868;2023-07-31T06:16:03;96077.50;;;15.38;100.00
16834;BME280;8533;48.426;10.868;2023-07-31T06:18:34;96083.69;;;15.52;100.00
16834;BME280;8533;48.426;10.868;2023-07-31T06:20:59;96011.34;;;15.06;100.00
16834;BME280;8533;48.426;10.868;2023-07-31T06:23:24;96068.16;;;15.56;100.00
16834;BME280;8533;48.426;10.868;2023-07-31T06:25:50;96062.66;;;15.47;100.00
16834;BME280;8533;48.426;10.868;2023-07-31T06:28:15;95968.09;;;15.12;100.00
16834;BME280;8533;48.426;10.868;2023-07-31T06:30:40;96034.78;;;15.70;100.00
16834;BME280;8533;48.426;10.868;2023-07-31T06:33:05;96140.78;;;16.49;100.00
16834;BME280;8533;48.426;10.868;2023-07-31T06:35:31;96031.28;;;15.75;100.00
16834;BME280;8533;48.426;10.868;2023-07-31T06:37:56;96115.88;;;16.55;100.00
16834;BME280;8533;48.426;10.868;2023-07-31T06:40:22;96138.31;;;16.81;100.00
16834;BME280;8533;48.426;10.868;2023-07-31T06:42:47;96124.91;;;16.77;100.00
16834;BME280;8533;48.426;10.868;2023-07-31T06:45:13;96066.41;;;16.41;100.00
16834;BME280;8533;48.426;10.868;2023-07-31T06:47:38;95988.25;;;16.03;100.00
16834;BME280;8533;48.426;10.868;2023-07-31T06:50:04;96053.59;;;16.54;100.00
16834;BME280;8533;48.426;10.868;2023-07-31T06:52:30;96161.31;;;17.37;100.00
16834;BME280;8533;48.426;10.868;2023-07-31T06:55:21;96018.34;;;16.63;100.00
16834;BME280;8533;48.426;10.868;2023-07-31T06:57:48;96121.88;;;17.40;100.00
16834;BME280;8533;48.426;10.868;2023-07-31T07:00:14;96043.38;;;17.03;100.00
16834;BME280;8533;48.426;10.868;2023-07-31T07:02:39;96161.09;;;18.03;100.00
16834;BME280;8533;48.426;10.868;2023-07-31T07:05:06;95984.19;;;17.04;100.00
16834;BME280;8533;48.426;10.868;2023-07-31T07:07:32;96134.06;;;18.20;100.00
16834;BME280;8533;48.426;10.868;2023-07-31T07:09:57;95984.53;;;17.30;98.51
16834;BME280;8533;48.426;10.868;2023-07-31T07:12:24;96094.91;;;18.17;94.82
16834;BME280;8533;48.426;10.868;2023-07-31T07:14:50;96132.00;;;18.44;97.87
16834;BME280;8533;48.426;10.868;2023-07-31T07:17:15;95940.59;;;17.48;94.73
16834;BME280;8533;48.426;10.868;2023-07-31T07:19:40;95935.31;;;17.48;90.54
16834;BME280;8533;48.426;10.868;2023-07-31T07:22:07;96070.50;;;18.61;92.57
16834;BME280;8533;48.426;10.868;2023-07-31T07:24:32;96098.66;;;19.06;91.03
16834;BME280;8533;48.426;10.868;2023-07-31T07:26:57;96025.06;;;18.90;87.88
16834;BME280;8533;48.426;10.868;2023-07-31T07:29:23;96129.69;;;19.64;87.02
16834;BME280;8533;48.426;10.868;2023-07-31T07:31:48;96105.03;;;19.64;83.48
16834;BME280;8533;48.426;10.868;2023-07-31T07:34:13;96080.13;;;19.29;83.70
16834;BME280;8533;48.426;10.868;2023-07-31T07:36:39;95999.06;;;18.56;83.13
16834;BME280;8533;48.426;10.868;2023-07-31T07:39:04;96161.75;;;19.32;86.33
16834;BME280;8533;48.426;10.868;2023-07-31T07:41:30;95935.63;;;17.87;86.11
16834;BME280;8533;48.426;10.868;2023-07-31T07:43:55;95932.31;;;17.82;86.03
16834;BME280;8533;48.426;10.868;2023-07-31T07:46:20;96018.31;;;18.34;88.06
16834;BME280;8533;48.426;10.868;2023-07-31T07:48:46;96071.28;;;18.61;88.01
16834;BME280;8533;48.426;10.868;2023-07-31T07:51:11;95968.13;;;18.02;89.96
16834;BME280;8533;48.426;10.868;2023-07-31T07:53:36;96099.31;;;18.49;84.61
16834;BME280;8533;48.426;10.868;2023-07-31T07:56:02;96038.91;;;18.37;88.88
16834;BME280;8533;48.426;10.868;2023-07-31T07:58:27;95976.78;;;17.93;89.73
16834;BME280;8533;48.426;10.868;2023-07-31T08:00:52;95947.19;;;17.78;89.11
16834;BME280;8533;48.426;10.868;2023-07-31T08:03:18;96001.47;;;18.16;86.33
16834;BME280;8533;48.426;10.868;2023-07-31T08:05:44;95848.91;;;17.30;86.24
16834;BME280;8533;48.426;10.868;2023-07-31T08:08:14;95998.34;;;18.01;85.10
16834;BME280;8533;48.426;10.868;2023-07-31T08:10:39;95962.66;;;17.71;86.73
16834;BME280;8533;48.426;10.868;2023-07-31T08:13:04;96060.78;;;18.29;85.26
16834;BME280;8533;48.426;10.868;2023-07-31T08:15:30;95812.06;;;16.65;87.26
16834;BME280;8533;48.426;10.868;2023-07-31T08:17:55;96043.53;;;17.90;90.67
16834;BME280;8533;48.426;10.868;2023-07-31T08:20:20;96121.50;;;18.53;90.94
16834;BME280;8533;48.426;10.868;2023-07-31T08:22:46;96043.94;;;17.98;90.77
16834;BME280;8533;48.426;10.868;2023-07-31T08:25:11;96031.88;;;17.91;90.61
16834;BME280;8533;48.426;10.868;2023-07-31T08:27:36;96186.19;;;18.65;93.46
16834;BME280;8533;48.426;10.868;2023-07-31T08:30:02;96163.22;;;18.75;95.24
16834;BME280;8533;48.426;10.868;2023-07-31T08:32:27;96115.13;;;18.26;97.42
16834;BME280;8533;48.426;10.868;2023-07-31T08:34:53;96037.44;;;18.17;94.80
16834;BME280;8533;48.426;10.868;2023-07-31T08:37:18;95874.47;;;17.48;94.45
16834;BME280;8533;48.426;10.868;2023-07-31T08:39:43;95890.38;;;17.75;92.86
16834;BME280;8533;48.426;10.868;2023-07-31T08:42:08;96107.88;;;19.09;87.24
16834;BME280;8533;48.426;10.868;2023-07-31T08:44:35;96098.34;;;19.44;85.19
16834;BME280;8533;48.426;10.868;2023-07-31T08:47:00;96111.25;;;19.59;82.53
16834;BME280;8533;48.426;10.868;2023-07-31T08:49:27;96042.13;;;19.64;78.86
16834;BME280;8533;48.426;10.868;2023-07-31T08:51:52;95939.50;;;19.20;76.67
16834;BME280;8533;48.426;10.868;2023-07-31T08:54:19;96101.16;;;20.32;77.38
16834;BME280;8533;48.426;10.868;2023-07-31T08:56:45;95999.97;;;19.40;74.61
16834;BME280;8533;48.426;10.868;2023-07-31T08:59:11;95903.06;;;18.81;72.97
16834;BME280;8533;48.426;10.868;2023-07-31T09:01:41;95987.59;;;19.27;72.92
16834;BME280;8533;48.426;10.868;2023-07-31T09:04:09;96004.28;;;19.05;73.14
16834;BME280;8533;48.426;10.868;2023-07-31T09:06:36;96040.84;;;19.39;75.33
16834;BME280;8533;48.426;10.868;2023-07-31T09:09:02;96027.53;;;19.31;76.03
16834;BME280;8533;48.426;10.868;2023-07-31T09:11:28;96072.88;;;19.65;75.69
16834;BME280;8533;48.426;10.868;2023-07-31T09:13:57;96020.38;;;19.31;77.10
16834;BME280;8533;48.426;10.868;2023-07-31T09:16:29;96119.69;;;20.14;75.58
16834;BME280;8533;48.426;10.868;2023-07-31T09:18:57;95943.84;;;19.16;74.10
16834;BME280;8533;48.426;10.868;2023-07-31T09:21:24;96134.03;;;20.44;72.39
16834;BME280;8533;48.426;10.868;2023-07-31T09:23:50;95945.00;;;19.32;72.91
16834;BME280;8533;48.426;10.868;2023-07-31T09:26:35;95882.66;;;19.04;72.85
16834;BME280;8533;48.426;10.868;2023-07-31T09:29:01;95928.25;;;19.94;70.98
16834;BME280;8533;48.426;10.868;2023-07-31T09:31:33;95997.59;;;21.18;67.53
16834;BME280;8533;48.426;10.868;2023-07-31T09:33:59;96100.25;;;22.17;65.81
16834;BME280;8533;48.426;10.868;2023-07-31T09:36:29;95953.63;;;20.94;67.24
16834;BME280;8533;48.426;10.868;2023-07-31T09:38:54;95929.13;;;21.44;63.34
16834;BME280;8533;48.426;10.868;2023-07-31T09:41:20;95859.28;;;21.47;62.47
16834;BME280;8533;48.426;10.868;2023-07-31T09:43:53;95748.81;;;20.74;61.06
16834;BME280;8533;48.426;10.868;2023-07-31T09:46:23;96068.84;;;22.90;60.11
16834;BME280;8533;48.426;10.868;2023-07-31T09:48:52;95753.09;;;20.58;60.05
16834;BME280;8533;48.426;10.868;2023-07-31T09:51:17;95911.03;;;21.29;59.01
16834;BME280;8533;48.426;10.868;2023-07-31T09:53:50;96054.72;;;22.01;60.28
16834;BME280;8533;48.426;10.868;2023-07-31T09:56:17;95931.06;;;21.09;60.81
16834;BME280;8533;48.426;10.868;2023-07-31T09:58:44;95909.00;;;21.17;61.58
16834;BME280;8533;48.426;10.868;2023-07-31T10:01:09;95972.50;;;21.83;61.09
16834;BME280;8533;48.426;10.868;2023-07-31T10:03:36;95921.00;;;22.08;60.19
16834;BME280;8533;48.426;10.868;2023-07-31T10:06:02;95690.81;;;20.97;59.47
16834;BME280;8533;48.426;10.868;2023-07-31T10:08:30;96025.94;;;23.16;59.74
16834;BME280;8533;48.426;10.868;2023-07-31T10:11:01;95861.59;;;22.07;58.80
16834;BME280;8533;48.426;10.868;2023-07-31T10:13:28;95964.94;;;23.39;57.74
16834;BME280;8533;48.426;10.868;2023-07-31T10:15:54;95890.53;;;22.92;57.62
16834;BME280;8533;48.426;10.868;2023-07-31T10:18:23;95805.09;;;22.35;57.67
16834;BME280;8533;48.426;10.868;2023-07-31T10:20:49;95837.09;;;22.68;57.64
16834;BME280;8533;48.426;10.868;2023-07-31T10:23:16;95949.06;;;23.09;57.52
16834;BME280;8533;48.426;10.868;2023-07-31T10:25:42;95892.94;;;22.31;58.09
16834;BME280;8533;48.426;10.868;2023-07-31T10:28:08;95890.00;;;23.11;56.77
16834;BME280;8533;48.426;10.868;2023-07-31T10:30:34;96034.09;;;24.22;55.75
16834;BME280;8533;48.426;10.868;2023-07-31T10:33:03;96027.16;;;24.33;55.90
16834;BME280;8533;48.426;10.868;2023-07-31T10:35:30;95901.06;;;24.19;55.05
16834;BME280;8533;48.426;10.868;2023-07-31T10:38:08;95586.53;;;22.47;54.23
16834;BME280;8533;48.426;10.868;2023-07-31T10:40:34;96027.34;;;25.17;52.88
16834;BME280;8533;48.426;10.868;2023-07-31T10:42:59;95818.03;;;24.00;52.35
16834;BME280;8533;48.426;10.868;2023-07-31T10:48:34;95771.19;;;24.18;49.21
16834;BME280;8533;48.426;10.868;2023-07-31T10:50:56;95990.75;;;25.96;49.19
16834;BME280;8533;48.426;10.868;2023-07-31T10:53:32;95842.13;;;24.40;52.69
16834;BME280;8533;48.426;10.868;2023-07-31T10:56:02;95760.25;;;23.95;52.26
16834;BME280;8533;48.426;10.868;2023-07-31T10:58:28;95931.53;;;25.54;51.14
16834;BME280;8533;48.426;10.868;2023-07-31T11:00:56;95840.25;;;25.31;50.04
16834;BME280;8533;48.426;10.868;2023-07-31T11:03:25;95882.31;;;25.46;48.54
16834;BME280;8533;48.426;10.868;2023-07-31T11:06:03;95972.41;;;26.13;49.66
16834;BME280;8533;48.426;10.868;2023-07-31T11:08:34;95700.97;;;24.33;49.86
16834;BME280;8533;48.426;10.868;2023-07-31T11:13:30;95955.00;;;26.58;47.82
16834;BME280;8533;48.426;10.868;2023-07-31T11:15:55;95797.66;;;25.92;48.70
16834;BME280;8533;48.426;10.868;2023-07-31T11:18:20;95945.69;;;27.10;46.96
16834;BME280;8533;48.426;10.868;2023-07-31T11:20:46;95741.34;;;25.73;47.10
16834;BME280;8533;48.426;10.868;2023-07-31T11:23:12;95948.66;;;26.85;48.17
16834;BME280;8533;48.426;10.868;2023-07-31T11:25:39;95532.34;;;24.26;48.11
16834;BME280;8533;48.426;10.868;2023-07-31T11:28:09;95784.38;;;25.14;48.63
16834;BME280;8533;48.426;10.868;2023-07-31T11:30:35;95729.34;;;24.97;48.21
16834;BME280;8533;48.426;10.868;2023-07-31T11:33:03;95655.59;;;24.52;49.50
16834;BME280;8533;48.426;10.868;2023-07-31T11:35:32;95769.88;;;24.99;48.09
16834;BME280;8533;48.426;10.868;2023-07-31T11:37:59;95787.00;;;25.10;47.63
16834;BME280;8533;48.426;10.868;2023-07-31T11:40:24;95856.59;;;25.26;48.71
16834;BME280;8533;48.426;10.868;2023-07-31T11:42:55;95814.47;;;24.63;49.35
16834;BME280;8533;48.426;10.868;2023-07-31T11:45:24;95651.28;;;23.20;50.95
16834;BME280;8533;48.426;10.868;2023-07-31T11:47:50;95815.56;;;24.07;51.84
16834;BME280;8533;48.426;10.868;2023-07-31T11:50:15;95832.16;;;24.00;51.69
16834;BME280;8533;48.426;10.868;2023-07-31T11:52:43;95793.19;;;24.39;52.01
16834;BME280;8533;48.426;10.868;2023-07-31T11:55:10;95700.00;;;23.98;51.33
16834;BME280;8533;48.426;10.868;2023-07-31T11:57:37;95921.63;;;25.11;51.36
16834;BME280;8533;48.426;10.868;2023-07-31T12:00:04;95901.69;;;24.80;50.74
16834;BME280;8533;48.426;10.868;2023-07-31T12:02:31;95910.94;;;25.58;51.23
16834;BME280;8533;48.426;10.868;2023-07-31T12:04:56;95813.72;;;25.73;46.77
16834;BME280;8533;48.426;10.868;2023-07-31T12:07:24;95453.84;;;23.52;45.68
16834;BME280;8533;48.426;10.868;2023-07-31T12:09:56;95842.19;;;26.51;44.93
16834;BME280;8533;48.426;10.868;2023-07-31T12:12:22;95909.53;;;27.49;44.61
16834;BME280;8533;48.426;10.868;2023-07-31T12:14:48;95936.84;;;27.51;44.53
16834;BME280;8533;48.426;10.868;2023-07-31T12:17:16;95909.00;;;27.86;44.77
16834;BME280;8533;48.426;10.868;2023-07-31T12:19:41;95903.25;;;28.14;45.16
16834;BME280;8533;48.426;10.868;2023-07-31T12:22:14;95806.47;;;27.12;43.30
16834;BME280;8533;48.426;10.868;2023-07-31T12:24:41;95649.59;;;25.79;44.13
16834;BME280;8533;48.426;10.868;2023-07-31T12:27:11;95854.88;;;26.35;45.68
16834;BME280;8533;48.426;10.868;2023-07-31T12:29:38;95939.41;;;26.83;46.30
16834;BME280;8533;48.426;10.868;2023-07-31T12:32:03;95915.34;;;27.51;45.37
16834;BME280;8533;48.426;10.868;2023-07-31T12:34:29;95865.72;;;27.45;43.04
16834;BME280;8533;48.426;10.868;2023-07-31T12:36:54;95769.91;;;26.62;43.20
16834;BME280;8533;48.426;10.868;2023-07-31T12:39:20;95804.59;;;26.51;44.61
16834;BME280;8533;48.426;10.868;2023-07-31T12:41:45;95806.78;;;26.87;44.96
16834;BME280;8533;48.426;10.868;2023-07-31T12:44:11;95921.56;;;27.78;44.41
16834;BME280;8533;48.426;10.868;2023-07-31T12:46:36;95561.00;;;25.69;44.20
16834;BME280;8533;48.426;10.868;2023-07-31T12:49:02;95697.78;;;26.60;43.67
16834;BME280;8533;48.426;10.868;2023-07-31T12:51:27;95820.13;;;27.52;43.06
16834;BME280;8533;48.426;10.868;2023-07-31T12:53:53;95806.19;;;27.43;42.14
16834;BME280;8533;48.426;10.868;2023-07-31T12:56:18;95865.28;;;28.48;43.07
16834;BME280;8533;48.426;10.868;2023-07-31T12:58:43;95821.47;;;27.88;41.64